Boone, CO

12:44 AM MDT on October 22, 2014 (GMT -0600)
Butts Army Air Field | Change Station
CLOSE
Current Station
Airport
Location: Fort Carson,
Elevation: 5869 ft
Nearby Weather Stations

Elev 5869 ft 38.68 °N, 104.76 °W | Updated 46 minutes ago

Partly Cloudy
Partly Cloudy
51 °F
Feels Like 51 °F
N
4
Wind Variable Wind from WNW

Today
High -- | Low -- °F
--% Chance of Precip.
Yesterday
High -- | Low -- °F
Precip. -- in
7:12 AM 6:09 PM
Waning Crescent, 3% visible
Pressure 29.88 in
Visibility 10.0 miles
Clouds Mostly Cloudy 12000 ft
Dew Point 38 °F
Humidity 61%
Rainfall 0.00 in
Snow Depth Not available.
UV 0 out of 12
Pollen 2.40 out of 12
Air Quality Not available.
Flu Activity Sporadic
METAR KFCS 220558Z AUTO 30003KT 10SM BKN120 11/04 A2998 RMK AO2 SLP119 T01080035 10183 20108 51005

More Conditions Fewer Conditions

Pressure 29.88 in
Visibility 10.0 miles
Clouds Mostly Cloudy 12000 ft
Dew Point 38 °F
Humidity 61%
Rainfall 0.00 in
Snow Depth Not available.
UV 0 out of 12
Pollen 2.40 out of 12
Air Quality Not available.
Flu Activity Sporadic
METAR KFCS 220558Z AUTO 30003KT 10SM BKN120 11/04 A2998 RMK AO2 SLP119 T01080035 10183 20108 51005

More Conditions Fewer Conditions

10-Day Weather Forecast

Almanac

Astronomy

Oct. 22, 2014 Rise Set
Actual Time 7:12 AM MDT 6:09 PM MDT
Civil Twilight 6:45 AM MDT 6:36 PM MDT
Nautical Twilight 6:14 AM MDT 7:07 PM MDT
Astronomical Twilight 5:44 AM MDT 7:37 PM MDT
Moon 5:57 AM MDT 5:36 PM MDT
Length of Visible Light 11h 50m
Length of Day
10h 56m
Tomorrow will be 2m 19s shorter.
Waning Crescent, 3% of the Moon is Illuminated
Today
Waning Crescent
Oct 23
New
Oct 30
First Quarter
Nov 6
Full
Nov 14
Last Quarter

Today's Extremes

State Highs State Lows

Community

WunderPhotos

Upload Photos

1,763,884 photos uploaded!

Nearby

Snow Depth

Station Depth Elevation
Glen Cove 1 in 11460 ft
Medano Pass 0 in 9620 ft
South Colony 0 in 10800 ft
Ute Creek 0 in 10650 ft
Apishapa 0 in 10000 ft

Earthquake Activity

City Distance Mag. Time & Date
Trinidad, Colorado 92 miles 2.7 10:33 PM MDT
2014-10-20
Trinidad, Colorado 81 miles 2.5 10:01 PM MDT
2014-10-19
Minimum magnitude displayed is 2.5.

Coastal Water Temperatures

Place Temperature
No Stations Reporting

Nearby Weather Stations